createdAt,value
2023-03-03T00:05:07.953Z,107.80
2023-03-03T00:10:43.745Z,118.70
2023-03-03T00:15:40.729Z,103.40
2023-03-03T00:20:38.051Z,111.00
2023-03-03T00:30:29.239Z,109.00
2023-03-03T00:35:30.504Z,104.30
2023-03-03T00:40:27.690Z,110.60
2023-03-03T00:45:41.034Z,107.40
2023-03-03T00:50:36.206Z,105.60
2023-03-03T00:55:29.813Z,106.70
2023-03-03T01:00:22.605Z,103.90
2023-03-03T01:05:18.086Z,101.80
2023-03-03T01:10:12.196Z,95.80
2023-03-03T01:15:05.651Z,108.50
2023-03-03T01:19:58.403Z,106.00
2023-03-03T01:24:51.160Z,111.90
2023-03-03T01:29:44.161Z,97.80
2023-03-03T01:34:36.897Z,98.90
2023-03-03T01:39:29.843Z,103.90
2023-03-03T01:44:22.531Z,102.30
2023-03-03T01:49:37.810Z,106.10
2023-03-03T01:54:56.579Z,103.80
2023-03-03T01:59:52.097Z,109.70
2023-03-03T02:04:44.775Z,107.00
2023-03-03T02:10:01.097Z,96.90
2023-03-03T02:14:56.170Z,95.50
2023-03-03T02:19:59.422Z,101.60
2023-03-03T02:25:00.097Z,92.90
2023-03-03T02:29:52.961Z,99.50
2023-03-03T02:34:52.142Z,104.30
2023-03-03T02:39:45.523Z,100.00
2023-03-03T02:44:38.882Z,98.00
2023-03-03T02:49:35.395Z,97.70
2023-03-03T02:54:31.332Z,102.40
2023-03-03T02:59:24.621Z,101.20
2023-03-03T03:04:21.704Z,95.90
2023-03-03T03:09:17.108Z,97.50
2023-03-03T03:14:12.035Z,103.40
2023-03-03T03:19:06.081Z,110.70
2023-03-03T03:24:00.181Z,103.10
2023-03-03T03:28:54.185Z,101.80
2023-03-03T03:33:47.467Z,112.40
2023-03-03T03:38:41.070Z,102.00
2023-03-03T03:43:34.754Z,101.30
2023-03-03T03:48:29.252Z,108.00
2023-03-03T03:53:22.539Z,95.70
2023-03-03T03:58:17.519Z,82.60
2023-03-03T04:03:14.593Z,88.50
2023-03-03T04:08:09.028Z,86.60
2023-03-03T04:13:02.588Z,103.00
2023-03-03T04:17:55.704Z,96.20
2023-03-03T04:22:48.412Z,90.70
2023-03-03T04:27:41.446Z,99.00
2023-03-03T04:32:35.444Z,81.10
2023-03-03T04:37:29.504Z,87.00
2023-03-03T04:42:22.426Z,83.60
2023-03-03T04:47:15.455Z,85.70
2023-03-03T04:52:08.884Z,85.40
2023-03-03T04:57:03.480Z,74.40
2023-03-03T05:01:56.522Z,77.80
2023-03-03T05:06:49.389Z,79.90
2023-03-03T05:11:44.425Z,75.60
2023-03-03T05:16:37.062Z,83.70
2023-03-03T05:21:29.818Z,84.00
2023-03-03T05:26:22.522Z,74.90
2023-03-03T05:31:57.090Z,75.00
2023-03-03T05:37:09.874Z,77.50
2023-03-03T05:42:19.397Z,73.10
2023-03-03T05:47:31.720Z,69.70
2023-03-03T05:52:53.750Z,73.60
2023-03-03T05:57:53.985Z,68.60
2023-03-03T06:02:47.151Z,70.10
2023-03-03T06:07:40.182Z,67.70
2023-03-03T06:12:32.925Z,78.20
2023-03-03T06:17:25.575Z,75.70
2023-03-03T06:22:20.929Z,80.00
2023-03-03T06:27:13.576Z,81.60
2023-03-03T06:32:06.924Z,81.80
2023-03-03T06:36:59.827Z,77.30
2023-03-03T06:41:52.445Z,77.10
2023-03-03T06:46:45.187Z,85.00
2023-03-03T06:51:40.456Z,86.50
2023-03-03T06:56:54.561Z,83.10
2023-03-03T07:07:32.894Z,86.90
2023-03-03T07:12:33.714Z,78.10
2023-03-03T07:17:26.879Z,84.10
2023-03-03T07:22:26.388Z,74.00
2023-03-03T07:27:28.164Z,80.60
2023-03-03T07:32:26.686Z,79.10
2023-03-03T07:37:36.058Z,85.40
2023-03-03T07:42:44.378Z,73.10
2023-03-03T07:47:51.672Z,66.70
2023-03-03T07:53:03.255Z,65.30
2023-03-03T07:58:06.730Z,59.40
2023-03-03T08:04:01.893Z,54.60
2023-03-03T08:09:02.511Z,59.30
2023-03-03T08:13:55.809Z,63.70
2023-03-03T08:18:50.997Z,61.30
2023-03-03T08:24:00.176Z,58.00
2023-03-03T08:30:03.767Z,60.80
2023-03-03T08:35:15.299Z,64.40
2023-03-03T08:40:28.336Z,69.60
2023-03-03T08:45:21.759Z,69.90
2023-03-03T08:50:35.053Z,63.60
2023-03-03T08:55:27.982Z,69.20
2023-03-03T09:00:23.642Z,69.70
2023-03-03T09:05:25.472Z,63.00
2023-03-03T09:10:39.424Z,48.90
2023-03-03T09:15:51.221Z,45.90
2023-03-03T09:20:58.587Z,42.30
2023-03-03T09:25:56.212Z,53.40
2023-03-03T09:31:07.119Z,44.50
2023-03-03T09:36:29.544Z,43.80
2023-03-03T09:41:28.636Z,44.40
2023-03-03T09:46:52.837Z,45.10
2023-03-03T09:51:45.637Z,42.10
2023-03-03T09:56:51.269Z,41.40
2023-03-03T10:02:22.980Z,43.20
2023-03-03T10:07:37.844Z,48.50
2023-03-03T10:12:36.890Z,51.10
2023-03-03T10:17:47.124Z,50.80
2023-03-03T10:23:08.991Z,47.20
2023-03-03T10:28:27.179Z,44.50
2023-03-03T10:39:01.829Z,40.20
2023-03-03T10:44:00.932Z,56.00
2023-03-03T10:48:56.753Z,58.10
2023-03-03T10:54:23.936Z,45.10
2023-03-03T10:59:45.282Z,45.40
2023-03-03T11:04:50.311Z,52.80
2023-03-03T11:09:58.615Z,53.00
2023-03-03T11:15:10.993Z,43.80
2023-03-03T11:20:34.591Z,51.50
2023-03-03T11:25:56.726Z,48.10
2023-03-03T11:31:17.197Z,45.90
2023-03-03T11:36:19.706Z,49.40
2023-03-03T11:41:51.040Z,45.20
2023-03-03T11:46:54.415Z,44.10
2023-03-03T11:52:06.260Z,33.70
2023-03-03T11:57:44.017Z,34.50
2023-03-03T12:03:01.908Z,38.90
2023-03-03T12:08:20.756Z,30.50
2023-03-03T12:13:29.897Z,37.20
2023-03-03T12:19:29.938Z,34.80
2023-03-03T12:24:44.395Z,35.60
2023-03-03T12:29:48.047Z,32.20
2023-03-03T12:35:09.000Z,33.20
2023-03-03T12:40:33.250Z,33.60
2023-03-03T12:45:53.781Z,22.80
2023-03-03T12:51:24.632Z,29.00
2023-03-03T12:56:36.847Z,30.20
2023-03-03T13:01:46.105Z,31.60
2023-03-03T13:07:02.178Z,29.50
2023-03-03T13:11:55.098Z,26.60
2023-03-03T13:17:03.233Z,28.20
2023-03-03T13:22:11.032Z,24.30
2023-03-03T13:27:16.141Z,27.20
2023-03-03T13:32:25.739Z,30.80
2023-03-03T13:37:36.768Z,28.80
2023-03-03T13:42:34.704Z,34.70
2023-03-03T13:47:49.323Z,34.90
2023-03-03T13:53:15.262Z,35.50
2023-03-03T13:58:45.291Z,31.30
2023-03-03T14:03:59.104Z,36.60
2023-03-03T14:09:16.723Z,30.60
2023-03-03T14:14:31.079Z,32.90
2023-03-03T14:19:36.563Z,32.10
2023-03-03T14:24:29.438Z,29.20
2023-03-03T14:29:29.734Z,33.00
2023-03-03T14:34:35.200Z,21.70
2023-03-03T14:39:35.157Z,31.40
2023-03-03T14:44:36.812Z,34.70
2023-03-03T14:49:34.756Z,32.70
2023-03-03T14:54:31.448Z,35.20
2023-03-03T14:59:27.127Z,33.60
2023-03-03T15:04:31.041Z,32.90
2023-03-03T15:09:43.293Z,30.90
2023-03-03T15:14:46.754Z,25.80
2023-03-03T15:19:49.761Z,28.30
2023-03-03T15:24:51.652Z,35.50
2023-03-03T15:30:14.003Z,32.80
2023-03-03T15:35:24.647Z,35.00
2023-03-03T15:40:36.453Z,35.90
2023-03-03T15:45:35.469Z,38.40
2023-03-03T15:51:00.432Z,33.20
2023-03-03T15:56:13.469Z,28.40
2023-03-03T16:01:10.702Z,24.40
2023-03-03T16:06:17.904Z,31.60
2023-03-03T16:11:31.609Z,25.30
2023-03-03T16:16:31.053Z,28.20
2023-03-03T16:21:45.238Z,28.40
2023-03-03T16:26:47.588Z,25.70
2023-03-03T16:32:23.619Z,30.20
2023-03-03T16:37:28.244Z,31.30
2023-03-03T16:42:34.466Z,28.30
2023-03-03T16:47:39.682Z,31.20
2023-03-03T16:52:44.493Z,27.70
2023-03-03T16:57:59.452Z,30.70
2023-03-03T17:03:10.670Z,31.30
2023-03-03T17:08:13.347Z,35.00
2023-03-03T17:13:21.459Z,36.20
2023-03-03T17:18:41.313Z,33.40
2023-03-03T17:23:51.266Z,30.60
2023-03-03T17:29:01.809Z,29.40
2023-03-03T17:34:06.937Z,32.20
2023-03-03T17:39:27.668Z,33.60
2023-03-03T17:44:42.127Z,33.70
2023-03-03T17:50:07.009Z,28.90
2023-03-03T17:55:31.442Z,29.30
2023-03-03T18:00:48.975Z,29.60
2023-03-03T18:05:50.829Z,32.60
2023-03-03T18:11:02.259Z,33.30
2023-03-03T18:16:20.050Z,35.50
2023-03-03T18:21:19.168Z,31.00
2023-03-03T18:26:39.432Z,35.90
2023-03-03T18:31:44.909Z,28.60
2023-03-03T18:36:52.098Z,31.60
2023-03-03T18:42:32.541Z,28.10
2023-03-03T18:48:02.470Z,36.10
2023-03-03T18:53:15.889Z,33.50
2023-03-03T18:58:14.719Z,37.50
2023-03-03T19:03:28.841Z,38.50
2023-03-03T19:08:54.432Z,38.10
2023-03-03T19:13:50.123Z,37.90
2023-03-03T19:18:43.200Z,39.00
2023-03-03T19:24:00.224Z,36.50
2023-03-03T19:29:21.117Z,37.90
2023-03-03T19:34:23.537Z,34.60
2023-03-03T19:39:50.526Z,33.60
2023-03-03T19:45:17.707Z,34.20
2023-03-03T19:50:34.621Z,25.90
2023-03-03T19:55:36.548Z,33.80
2023-03-03T20:00:36.465Z,41.20
2023-03-03T20:05:47.886Z,34.20
2023-03-03T20:11:05.644Z,40.30
2023-03-03T20:16:23.222Z,39.80
2023-03-03T20:21:20.899Z,35.90
2023-03-03T20:26:41.257Z,40.60
2023-03-03T20:31:46.060Z,36.90
2023-03-03T20:36:49.299Z,38.50
2023-03-03T20:42:06.779Z,41.90
2023-03-03T20:47:10.867Z,39.60
2023-03-03T20:52:15.619Z,39.70
2023-03-03T20:57:14.155Z,34.30
2023-03-03T21:02:09.982Z,44.00
2023-03-03T21:07:04.805Z,44.30
2023-03-03T21:11:58.974Z,45.20
2023-03-03T21:16:53.987Z,48.70
2023-03-03T21:21:50.611Z,43.40
2023-03-03T21:26:53.713Z,45.40
2023-03-03T21:31:55.313Z,46.50
2023-03-03T21:36:50.419Z,41.40
2023-03-03T21:42:14.595Z,47.40
2023-03-03T21:47:12.991Z,43.90
2023-03-03T21:52:06.206Z,47.60
2023-03-03T21:56:58.923Z,42.10
2023-03-03T22:01:51.591Z,44.00
2023-03-03T22:06:45.619Z,43.50
2023-03-03T22:11:39.656Z,45.60
2023-03-03T22:16:32.632Z,42.90
2023-03-03T22:21:25.402Z,45.00
2023-03-03T22:26:18.782Z,46.60
2023-03-03T22:31:11.467Z,38.70
2023-03-03T22:36:04.695Z,40.30
2023-03-03T22:40:57.375Z,43.50
2023-03-03T22:45:50.641Z,32.90
2023-03-03T22:50:45.254Z,38.10
2023-03-03T22:55:38.222Z,37.50
2023-03-03T23:00:31.673Z,32.50
2023-03-03T23:05:24.553Z,30.10
2023-03-03T23:10:17.593Z,34.40
2023-03-03T23:15:13.358Z,31.40
2023-03-03T23:20:07.132Z,33.90
2023-03-03T23:24:59.826Z,33.20
2023-03-03T23:29:52.848Z,31.70
2023-03-03T23:34:45.530Z,31.90
2023-03-03T23:39:38.181Z,38.50
2023-03-03T23:44:31.487Z,28.10
2023-03-03T23:49:24.475Z,32.00
2023-03-03T23:54:18.193Z,32.70
2023-03-03T23:59:10.905Z,31.90
